createdAt,value
2018-07-29T00:01:20.773Z,20.30
2018-07-29T00:03:49.039Z,20.30
2018-07-29T00:06:17.284Z,20.20
2018-07-29T00:08:45.553Z,20.00
2018-07-29T00:11:13.812Z,19.90
2018-07-29T00:13:42.104Z,19.80
2018-07-29T00:16:10.485Z,19.70
2018-07-29T00:18:39.708Z,19.50
2018-07-29T00:21:07.984Z,19.40
2018-07-29T00:23:36.249Z,19.30
2018-07-29T00:26:24.728Z,19.30
2018-07-29T00:28:53.499Z,19.20
2018-07-29T00:33:49.786Z,19.10
2018-07-29T00:36:18.195Z,19.00
2018-07-29T00:38:46.453Z,18.90
2018-07-29T00:41:15.034Z,18.90
2018-07-29T00:43:43.286Z,18.80
2018-07-29T00:46:11.525Z,18.80
2018-07-29T00:48:40.167Z,18.70
2018-07-29T00:51:08.926Z,18.70
2018-07-29T00:56:05.198Z,18.60
2018-07-29T00:58:33.526Z,18.60
2018-07-29T01:01:01.830Z,18.50
2018-07-29T01:03:30.070Z,18.60
2018-07-29T01:05:58.339Z,18.50
2018-07-29T01:08:26.602Z,18.30
2018-07-29T01:10:55.157Z,18.20
2018-07-29T01:13:24.946Z,18.20
2018-07-29T01:15:54.312Z,18.20
2018-07-29T01:18:22.603Z,18.10
2018-07-29T01:20:50.904Z,18.00
2018-07-29T01:23:19.199Z,18.00
2018-07-29T01:25:47.555Z,18.10
2018-07-29T01:28:15.853Z,18.00
2018-07-29T01:30:44.177Z,18.10
2018-07-29T01:33:12.447Z,18.10
2018-07-29T01:35:48.622Z,18.10
2018-07-29T01:38:16.882Z,18.20
2018-07-29T01:40:45.153Z,18.20
2018-07-29T01:43:13.421Z,18.10
2018-07-29T01:45:41.685Z,18.00
2018-07-29T01:48:10.618Z,18.00
2018-07-29T01:50:39.397Z,18.00
2018-07-29T01:53:07.670Z,18.10
2018-07-29T01:55:35.932Z,18.10
2018-07-29T01:58:04.250Z,18.20
2018-07-29T02:00:32.703Z,18.00
2018-07-29T02:03:00.961Z,18.10
2018-07-29T02:05:29.226Z,17.90
2018-07-29T02:07:57.493Z,17.90
2018-07-29T02:10:27.031Z,18.00
2018-07-29T02:12:55.510Z,17.90
2018-07-29T02:15:24.469Z,17.90
2018-07-29T02:20:43.650Z,17.90
2018-07-29T02:23:12.045Z,17.70
2018-07-29T02:25:41.473Z,17.60
2018-07-29T02:28:10.819Z,17.50
2018-07-29T02:30:40.025Z,17.50
2018-07-29T02:33:09.085Z,17.40
2018-07-29T02:35:37.381Z,17.40
2018-07-29T02:38:05.658Z,17.50
2018-07-29T02:40:34.066Z,17.60
2018-07-29T02:43:02.353Z,17.70
2018-07-29T02:45:30.685Z,17.80
2018-07-29T02:50:27.041Z,17.80
2018-07-29T02:52:56.787Z,17.80
2018-07-29T02:55:26.080Z,17.90
2018-07-29T02:57:54.980Z,17.80
2018-07-29T03:00:24.514Z,17.90
2018-07-29T03:02:53.697Z,17.90
2018-07-29T03:05:21.974Z,17.80
2018-07-29T03:07:50.242Z,17.60
2018-07-29T03:10:18.709Z,17.50
2018-07-29T03:12:46.972Z,17.50
2018-07-29T03:15:15.224Z,17.40
2018-07-29T03:17:43.561Z,17.40
2018-07-29T03:20:11.793Z,17.30
2018-07-29T03:22:41.019Z,17.30
2018-07-29T03:25:09.978Z,17.20
2018-07-29T03:27:38.245Z,17.10
2018-07-29T03:30:07.910Z,17.10
2018-07-29T03:32:36.177Z,17.10
2018-07-29T03:35:04.460Z,17.10
2018-07-29T03:37:32.813Z,17.20
2018-07-29T03:40:01.061Z,17.10
2018-07-29T03:42:29.310Z,17.20
2018-07-29T03:44:57.561Z,17.30
2018-07-29T03:47:25.811Z,17.30
2018-07-29T03:49:55.222Z,17.40
2018-07-29T03:52:25.081Z,17.30
2018-07-29T03:54:54.482Z,17.30
2018-07-29T03:57:23.553Z,17.20
2018-07-29T03:59:51.813Z,17.20
2018-07-29T04:02:20.079Z,17.20
2018-07-29T04:04:48.365Z,17.10
2018-07-29T04:07:16.860Z,17.00
2018-07-29T04:09:45.218Z,17.10
2018-07-29T04:12:13.477Z,17.20
2018-07-29T04:14:41.752Z,17.20
2018-07-29T04:17:11.266Z,17.20
2018-07-29T04:19:39.936Z,17.30
2018-07-29T04:22:08.317Z,17.10
2018-07-29T04:24:37.417Z,17.10
2018-07-29T04:27:05.821Z,17.00
2018-07-29T04:29:34.139Z,16.90
2018-07-29T04:32:02.465Z,16.90
2018-07-29T04:34:30.745Z,16.90
2018-07-29T04:37:06.769Z,17.00
2018-07-29T04:39:35.364Z,17.10
2018-07-29T04:42:03.673Z,17.10
2018-07-29T04:44:32.025Z,17.20
2018-07-29T04:47:00.281Z,17.20
2018-07-29T04:49:28.552Z,17.20
2018-07-29T04:51:56.839Z,17.30
2018-07-29T04:54:26.698Z,17.30
2018-07-29T04:56:55.737Z,17.40
2018-07-29T04:59:25.070Z,17.60
2018-07-29T05:01:54.617Z,17.70
2018-07-29T05:04:23.579Z,17.80
2018-07-29T05:06:51.852Z,17.90
2018-07-29T05:09:20.113Z,18.00
2018-07-29T05:11:48.405Z,18.00
2018-07-29T05:14:16.679Z,18.00
2018-07-29T05:16:44.949Z,18.10
2018-07-29T05:19:13.230Z,18.00
2018-07-29T05:24:32.114Z,18.10
2018-07-29T05:27:00.477Z,18.10
2018-07-29T05:29:28.781Z,18.10
2018-07-29T05:34:48.209Z,18.20
2018-07-29T05:37:16.521Z,18.20
2018-07-29T05:39:44.938Z,18.30
2018-07-29T05:42:13.231Z,18.40
2018-07-29T05:44:41.658Z,18.60
2018-07-29T05:47:31.741Z,18.60
2018-07-29T05:50:00.307Z,18.70
2018-07-29T05:52:28.564Z,18.80
2018-07-29T05:54:56.853Z,18.90
2018-07-29T05:57:25.862Z,18.90
2018-07-29T05:59:55.153Z,19.10
2018-07-29T06:02:23.997Z,19.20
2018-07-29T06:04:55.038Z,19.30
2018-07-29T06:07:24.452Z,19.50
2018-07-29T06:09:53.635Z,19.50
2018-07-29T06:12:21.905Z,19.60
2018-07-29T06:14:50.173Z,19.60
2018-07-29T06:17:18.441Z,19.70
2018-07-29T06:22:14.751Z,20.10
2018-07-29T06:24:43.071Z,20.30
2018-07-29T06:27:12.349Z,20.30
2018-07-29T06:29:41.545Z,20.50
2018-07-29T06:32:10.090Z,20.60
2018-07-29T06:34:39.589Z,20.80
2018-07-29T06:37:08.076Z,20.90
2018-07-29T06:39:36.579Z,21.00
2018-07-29T06:42:04.892Z,21.10
2018-07-29T06:44:33.178Z,21.20
2018-07-29T06:47:01.485Z,21.40
2018-07-29T06:49:29.754Z,21.50
2018-07-29T06:51:58.110Z,21.60
2018-07-29T06:54:26.427Z,21.80
2018-07-29T06:56:56.196Z,21.90
2018-07-29T06:59:25.360Z,22.10
2018-07-29T07:01:54.421Z,22.00
2018-07-29T07:04:24.428Z,22.10
2018-07-29T07:07:24.427Z,22.30
2018-07-29T07:09:55.257Z,22.40
2018-07-29T07:12:24.689Z,22.70
2018-07-29T07:14:53.066Z,22.90
2018-07-29T07:17:21.489Z,23.00
2018-07-29T07:19:49.769Z,23.20
2018-07-29T07:22:19.009Z,23.10
2018-07-29T07:24:48.049Z,23.00
2018-07-29T07:27:16.957Z,23.00
2018-07-29T07:29:45.413Z,23.30
2018-07-29T07:32:14.089Z,23.90
2018-07-29T07:34:42.845Z,25.20
2018-07-29T07:37:11.614Z,26.70
2018-07-29T07:39:40.516Z,29.00
2018-07-29T07:42:09.366Z,30.30
2018-07-29T07:44:38.032Z,31.50
2018-07-29T07:47:06.868Z,32.80
2018-07-29T07:49:35.554Z,34.40
2018-07-29T07:52:04.314Z,33.60
2018-07-29T07:54:32.994Z,35.50
2018-07-29T07:57:01.715Z,36.00
2018-07-29T07:59:30.046Z,35.80
2018-07-29T08:01:58.469Z,37.50
2018-07-29T08:04:27.195Z,37.90
2018-07-29T08:06:57.093Z,38.00
2018-07-29T08:09:26.516Z,38.60
2018-07-29T08:11:56.016Z,38.40
2018-07-29T08:14:24.985Z,37.90
2018-07-29T08:16:55.165Z,36.60
2018-07-29T08:19:25.308Z,36.40
2018-07-29T08:21:53.938Z,36.80
2018-07-29T08:24:24.253Z,38.40
2018-07-29T08:26:54.466Z,39.40
2018-07-29T08:29:23.542Z,38.80
2018-07-29T08:31:51.885Z,38.30
2018-07-29T08:34:20.756Z,38.90
2018-07-29T08:36:49.452Z,38.70
2018-07-29T08:39:18.341Z,38.40
2018-07-29T08:41:47.066Z,38.20
2018-07-29T08:44:15.903Z,37.40
2018-07-29T08:46:44.746Z,36.40
2018-07-29T08:49:13.520Z,35.90
2018-07-29T08:51:42.188Z,35.60
2018-07-29T08:54:11.609Z,36.70
2018-07-29T08:56:41.228Z,37.50
2018-07-29T08:59:11.060Z,38.30
2018-07-29T09:01:39.770Z,37.80
2018-07-29T09:04:09.310Z,38.80
2018-07-29T09:06:38.042Z,39.00
2018-07-29T09:09:08.836Z,39.00
2018-07-29T09:11:37.695Z,39.40
2018-07-29T09:14:07.123Z,39.00
2018-07-29T09:16:35.899Z,38.50
2018-07-29T09:19:04.173Z,38.10
2018-07-29T09:21:32.440Z,37.70
2018-07-29T09:24:00.885Z,37.90
2018-07-29T09:26:29.121Z,37.20
2018-07-29T09:28:57.397Z,37.40
2018-07-29T09:31:26.799Z,37.60
2018-07-29T09:36:26.253Z,37.20
2018-07-29T09:38:56.332Z,37.20
2018-07-29T09:41:26.282Z,37.40
2018-07-29T09:43:55.700Z,38.70
2018-07-29T09:46:25.019Z,37.90
2018-07-29T09:48:55.190Z,38.20
2018-07-29T09:51:25.273Z,38.00
2018-07-29T09:53:56.388Z,38.50
2018-07-29T09:56:26.402Z,38.50
2018-07-29T09:58:55.916Z,39.60
2018-07-29T10:01:25.624Z,39.30
2018-07-29T10:03:54.836Z,38.80
2018-07-29T10:06:23.108Z,38.50
2018-07-29T10:08:51.354Z,38.10
2018-07-29T10:11:19.605Z,37.30
2018-07-29T10:13:47.922Z,38.10
2018-07-29T10:16:16.771Z,38.20
2018-07-29T10:18:46.445Z,38.90
2018-07-29T10:21:15.351Z,38.80
2018-07-29T10:23:44.132Z,37.70
2018-07-29T10:26:13.152Z,37.50
2018-07-29T10:28:42.081Z,35.90
2018-07-29T10:31:10.996Z,35.80
2018-07-29T10:33:40.055Z,35.90
2018-07-29T10:36:10.108Z,35.90
2018-07-29T10:38:38.961Z,35.60
2018-07-29T10:41:07.868Z,34.80
2018-07-29T10:43:36.810Z,34.70
2018-07-29T10:46:05.666Z,35.20
2018-07-29T10:48:34.710Z,34.70
2018-07-29T10:51:03.530Z,34.40
2018-07-29T10:53:32.630Z,34.60
2018-07-29T10:56:01.577Z,35.70
2018-07-29T10:58:31.426Z,37.40
2018-07-29T11:01:00.456Z,38.30
2018-07-29T11:03:29.271Z,38.60
2018-07-29T11:05:57.513Z,39.30
2018-07-29T11:08:26.346Z,40.50
2018-07-29T11:10:55.211Z,40.90
2018-07-29T11:13:24.473Z,40.20
2018-07-29T11:15:53.977Z,39.30
2018-07-29T11:18:22.319Z,38.40
2018-07-29T11:20:50.609Z,37.50
2018-07-29T11:23:19.604Z,36.10
2018-07-29T11:25:48.745Z,35.10
2018-07-29T11:28:18.040Z,34.60
2018-07-29T11:30:47.012Z,34.30
2018-07-29T11:33:16.223Z,34.60
2018-07-29T11:35:45.335Z,34.20
2018-07-29T11:38:14.466Z,35.30
2018-07-29T11:40:43.544Z,35.40
2018-07-29T11:43:12.397Z,34.90
2018-07-29T11:45:43.058Z,35.00
2018-07-29T11:48:13.428Z,35.20
2018-07-29T11:50:42.226Z,34.80
2018-07-29T11:53:11.378Z,34.70
2018-07-29T11:55:40.293Z,35.70
2018-07-29T11:58:09.912Z,36.70
2018-07-29T12:00:40.344Z,36.60
2018-07-29T12:03:10.528Z,36.40
2018-07-29T12:05:39.895Z,37.10
2018-07-29T12:08:08.623Z,37.50
2018-07-29T12:10:38.574Z,35.90
2018-07-29T12:13:07.978Z,35.70
2018-07-29T12:15:37.132Z,35.40
2018-07-29T12:18:06.003Z,35.00
2018-07-29T12:20:34.976Z,35.20
2018-07-29T12:23:03.933Z,36.00
2018-07-29T12:25:32.840Z,36.50
2018-07-29T12:28:01.562Z,36.70
2018-07-29T12:30:31.310Z,36.80
2018-07-29T12:33:00.670Z,37.30
2018-07-29T12:35:30.418Z,37.00
2018-07-29T12:37:59.369Z,36.40
2018-07-29T12:40:28.643Z,36.80
2018-07-29T12:42:57.445Z,37.20
2018-07-29T12:47:56.222Z,37.00
2018-07-29T12:50:25.651Z,36.90
2018-07-29T12:52:55.379Z,36.60
2018-07-29T12:55:25.207Z,35.70
2018-07-29T12:57:56.141Z,34.00
2018-07-29T13:00:26.151Z,33.60
2018-07-29T13:02:56.269Z,33.20
2018-07-29T13:05:26.155Z,32.80
2018-07-29T13:08:05.337Z,32.60
2018-07-29T13:10:34.434Z,32.90
2018-07-29T13:13:03.425Z,33.50
2018-07-29T13:15:33.302Z,33.60
2018-07-29T13:18:02.136Z,34.00
2018-07-29T13:23:21.833Z,35.00
2018-07-29T13:25:50.102Z,35.30
2018-07-29T13:28:18.957Z,35.80
2018-07-29T13:30:47.927Z,35.70
2018-07-29T13:33:16.218Z,36.20
2018-07-29T13:35:44.585Z,36.50
2018-07-29T13:38:13.422Z,36.80
2018-07-29T13:40:42.397Z,35.80
2018-07-29T13:43:11.469Z,35.80
2018-07-29T13:45:40.495Z,35.60
2018-07-29T13:48:10.013Z,35.80
2018-07-29T13:50:39.141Z,36.20
2018-07-29T13:53:08.455Z,36.30
2018-07-29T13:55:38.949Z,36.40
2018-07-29T13:58:08.002Z,36.40
2018-07-29T14:00:37.155Z,36.40
2018-07-29T14:03:06.111Z,35.70
2018-07-29T14:05:35.305Z,35.50
2018-07-29T14:08:04.310Z,35.00
2018-07-29T14:10:33.531Z,34.00
2018-07-29T14:13:02.462Z,33.50
2018-07-29T14:15:31.380Z,33.50
2018-07-29T14:18:00.303Z,33.70
2018-07-29T14:20:29.342Z,33.80
2018-07-29T14:22:58.362Z,33.80
2018-07-29T14:25:27.281Z,33.80
2018-07-29T14:27:57.131Z,33.30
2018-07-29T14:30:27.214Z,33.10
2018-07-29T14:32:56.846Z,33.20
2018-07-29T14:35:27.381Z,33.40
2018-07-29T14:37:57.591Z,33.20
2018-07-29T14:40:26.577Z,32.80
2018-07-29T14:42:56.942Z,32.80
2018-07-29T14:45:26.838Z,32.80
2018-07-29T14:47:56.843Z,32.70
2018-07-29T14:50:25.954Z,32.60
2018-07-29T14:52:55.534Z,32.60
2018-07-29T14:55:25.169Z,32.60
2018-07-29T14:57:55.299Z,32.40
2018-07-29T15:00:24.965Z,32.10
2018-07-29T15:02:54.513Z,31.80
2018-07-29T15:05:23.711Z,31.60
2018-07-29T15:07:54.487Z,31.50
2018-07-29T15:10:29.638Z,31.70
2018-07-29T15:12:59.369Z,31.80
2018-07-29T15:15:29.158Z,31.90
2018-07-29T15:17:58.419Z,31.70
2018-07-29T15:20:27.265Z,32.00
2018-07-29T15:22:56.689Z,32.00
2018-07-29T15:25:25.795Z,32.10
2018-07-29T15:27:55.572Z,32.00
2018-07-29T15:30:25.029Z,32.00
2018-07-29T15:32:56.464Z,31.80
2018-07-29T15:35:26.101Z,31.60
2018-07-29T15:37:55.538Z,31.20
2018-07-29T15:40:25.693Z,31.30
2018-07-29T15:42:56.013Z,31.30
2018-07-29T15:45:25.957Z,31.40
2018-07-29T15:47:56.235Z,31.50
2018-07-29T15:52:56.197Z,31.50
2018-07-29T15:55:26.237Z,31.40
2018-07-29T15:57:56.011Z,31.30
2018-07-29T16:00:26.230Z,31.10
2018-07-29T16:02:56.627Z,31.00
2018-07-29T16:05:27.452Z,30.90
2018-07-29T16:07:57.678Z,30.90
2018-07-29T16:10:27.040Z,31.00
2018-07-29T16:12:56.340Z,31.10
2018-07-29T16:15:26.764Z,31.10
2018-07-29T16:17:56.519Z,31.00
2018-07-29T16:20:26.583Z,31.00
2018-07-29T16:22:58.861Z,31.00
2018-07-29T16:25:28.145Z,31.00
2018-07-29T16:27:56.746Z,31.00
2018-07-29T16:30:26.473Z,30.90
2018-07-29T16:32:56.142Z,31.00
2018-07-29T16:35:26.052Z,30.80
2018-07-29T16:37:55.099Z,30.80
2018-07-29T16:40:24.913Z,30.70
2018-07-29T16:42:54.634Z,30.60
2018-07-29T16:45:24.684Z,30.60
2018-07-29T16:47:54.240Z,30.50
2018-07-29T16:50:24.659Z,30.60
2018-07-29T16:52:53.718Z,30.60
2018-07-29T17:00:20.194Z,30.50
2018-07-29T17:02:49.187Z,30.50
2018-07-29T17:05:18.140Z,30.50
2018-07-29T17:07:47.142Z,30.30
2018-07-29T17:10:19.627Z,30.30
2018-07-29T17:12:49.532Z,30.20
2018-07-29T17:17:47.235Z,30.10
2018-07-29T17:20:16.086Z,30.00
2018-07-29T17:22:46.070Z,30.00
2018-07-29T17:25:14.361Z,29.90
2018-07-29T17:27:43.473Z,29.80
2018-07-29T17:30:12.187Z,29.90
2018-07-29T17:32:41.176Z,29.80
2018-07-29T17:35:10.568Z,29.70
2018-07-29T17:37:39.544Z,29.60
2018-07-29T17:40:08.602Z,29.60
2018-07-29T17:42:37.576Z,29.50
2018-07-29T17:45:07.342Z,29.40
2018-07-29T17:47:36.315Z,29.30
2018-07-29T17:50:05.949Z,29.20
2018-07-29T17:52:35.220Z,29.20
2018-07-29T17:55:04.076Z,29.10
2018-07-29T18:00:23.014Z,29.00
2018-07-29T18:02:52.624Z,29.00
2018-07-29T18:05:21.514Z,28.90
2018-07-29T18:07:50.508Z,28.80
2018-07-29T18:10:19.399Z,28.70
2018-07-29T18:12:48.358Z,28.70
2018-07-29T18:15:17.464Z,28.60
2018-07-29T18:17:46.631Z,28.50
2018-07-29T18:20:15.865Z,28.40
2018-07-29T18:22:44.889Z,28.30
2018-07-29T18:25:13.845Z,28.20
2018-07-29T18:27:42.760Z,28.10
2018-07-29T18:30:21.911Z,28.00
2018-07-29T18:32:50.857Z,27.90
2018-07-29T18:35:19.716Z,27.80
2018-07-29T18:37:48.787Z,27.70
2018-07-29T18:40:17.583Z,27.50
2018-07-29T18:42:46.600Z,27.40
2018-07-29T18:45:15.520Z,27.30
2018-07-29T18:47:44.497Z,27.20
2018-07-29T18:50:13.266Z,27.00
2018-07-29T18:52:42.319Z,26.90
2018-07-29T18:55:12.061Z,26.80
2018-07-29T18:57:41.132Z,26.70
2018-07-29T19:00:10.622Z,26.50
2018-07-29T19:02:40.593Z,26.40
2018-07-29T19:05:10.892Z,26.30
2018-07-29T19:07:40.061Z,26.10
2018-07-29T19:10:08.749Z,26.00
2018-07-29T19:12:37.899Z,25.90
2018-07-29T19:15:06.900Z,25.80
2018-07-29T19:19:15.704Z,25.70
2018-07-29T19:21:44.776Z,25.60
2018-07-29T19:24:13.822Z,25.40
2018-07-29T19:26:42.638Z,25.30
2018-07-29T19:29:12.929Z,25.20
2018-07-29T19:31:42.167Z,25.20
2018-07-29T19:34:13.816Z,25.20
2018-07-29T19:36:42.783Z,25.20
2018-07-29T19:39:12.542Z,25.00
2018-07-29T19:41:42.871Z,24.90
2018-07-29T19:44:12.415Z,24.80
2018-07-29T19:46:41.514Z,24.70
2018-07-29T19:49:11.262Z,24.60
2018-07-29T19:51:40.570Z,24.60
2018-07-29T19:54:09.660Z,24.60
2018-07-29T19:56:38.057Z,24.40
2018-07-29T19:59:24.322Z,24.50
2018-07-29T20:01:53.560Z,24.40
2018-07-29T20:06:49.890Z,24.20
2018-07-29T20:09:18.184Z,24.20
2018-07-29T20:11:46.451Z,24.10
2018-07-29T20:14:14.981Z,24.10
2018-07-29T20:16:57.289Z,24.00
2018-07-29T20:19:26.374Z,23.90
2018-07-29T20:21:55.950Z,23.80
2018-07-29T20:24:26.550Z,23.80
2018-07-29T20:26:55.819Z,23.70
2018-07-29T20:29:25.470Z,23.60
2018-07-29T20:32:00.377Z,23.60
2018-07-29T20:34:29.436Z,23.50
2018-07-29T20:36:57.793Z,23.50
2018-07-29T20:39:26.938Z,23.50
2018-07-29T20:41:56.819Z,23.40
2018-07-29T20:44:26.317Z,23.40
2018-07-29T20:46:55.310Z,23.40
2018-07-29T20:49:24.826Z,23.30
2018-07-29T20:51:53.110Z,23.30
2018-07-29T20:54:21.533Z,23.40
2018-07-29T20:56:50.157Z,23.30
2018-07-29T20:59:18.414Z,23.20
2018-07-29T21:01:46.689Z,23.10
2018-07-29T21:04:14.950Z,23.10
2018-07-29T21:06:43.266Z,23.10
2018-07-29T21:09:14.110Z,23.10
2018-07-29T21:11:43.042Z,23.00
2018-07-29T21:14:59.170Z,22.90
2018-07-29T21:17:27.410Z,22.90
2018-07-29T21:19:56.763Z,22.70
2018-07-29T21:22:26.135Z,22.60
2018-07-29T21:24:55.449Z,22.50
2018-07-29T21:27:24.334Z,22.50
2018-07-29T21:29:52.612Z,22.40
2018-07-29T21:32:20.877Z,22.30
2018-07-29T21:34:49.130Z,22.30
2018-07-29T21:37:17.406Z,22.20
2018-07-29T21:39:45.653Z,22.10
2018-07-29T21:42:14.072Z,22.00
2018-07-29T21:44:42.439Z,21.90
2018-07-29T21:47:11.729Z,21.80
2018-07-29T21:49:40.526Z,21.70
2018-07-29T21:52:08.790Z,21.80
2018-07-29T21:54:37.103Z,22.00
2018-07-29T21:57:05.362Z,22.00
2018-07-29T21:59:33.629Z,21.90
2018-07-29T22:02:01.911Z,21.80
2018-07-29T22:04:30.202Z,21.70
2018-07-29T22:06:58.470Z,21.70
2018-07-29T22:09:26.739Z,21.60
2018-07-29T22:11:55.742Z,21.60
2018-07-29T22:14:24.734Z,21.50
2018-07-29T22:16:53.650Z,21.50
2018-07-29T22:19:21.905Z,21.60
2018-07-29T22:21:50.166Z,21.60
2018-07-29T22:24:18.472Z,21.50
2018-07-29T22:26:52.113Z,21.40
2018-07-29T22:29:25.757Z,21.40
2018-07-29T22:31:59.367Z,21.30
2018-07-29T22:34:27.721Z,21.20
2018-07-29T22:36:56.012Z,21.10
2018-07-29T22:39:25.264Z,21.00
2018-07-29T22:44:44.030Z,20.80
2018-07-29T22:47:12.273Z,20.60
2018-07-29T22:49:41.414Z,20.60
2018-07-29T22:52:11.222Z,20.50
2018-07-29T22:54:40.464Z,20.40
2018-07-29T22:57:08.707Z,20.50
2018-07-29T23:02:05.950Z,20.40
2018-07-29T23:04:34.224Z,20.50
2018-07-29T23:07:02.482Z,20.60
2018-07-29T23:09:30.743Z,20.60
2018-07-29T23:11:58.989Z,20.60
2018-07-29T23:14:27.249Z,20.50
2018-07-29T23:16:56.658Z,20.50
2018-07-29T23:19:26.162Z,20.60
2018-07-29T23:21:55.480Z,20.60
2018-07-29T23:24:24.446Z,20.60
2018-07-29T23:26:52.728Z,20.60
2018-07-29T23:29:21.006Z,20.60
2018-07-29T23:35:07.032Z,20.40
2018-07-29T23:37:35.274Z,20.40
2018-07-29T23:40:03.553Z,20.40
2018-07-29T23:42:31.821Z,20.30
2018-07-29T23:45:00.073Z,20.30
2018-07-29T23:47:28.530Z,20.30
2018-07-29T23:49:56.761Z,20.30
2018-07-29T23:52:25.218Z,20.20
2018-07-29T23:54:53.728Z,20.00
2018-07-29T23:57:21.989Z,20.00
2018-07-29T23:59:50.238Z,19.90
